sensor_id;sensor_type;location;lat;lon;timestamp;P1;durP1;ratioP1;P2;durP2;ratioP2
9898;SDS011;4988;49.238;6.698;2023-05-29T00:01:47;14.23;;;7.70;;
9898;SDS011;4988;49.238;6.698;2023-05-29T00:04:12;15.33;;;7.77;;
9898;SDS011;4988;49.238;6.698;2023-05-29T00:06:38;14.67;;;7.93;;
9898;SDS011;4988;49.238;6.698;2023-05-29T00:09:03;19.43;;;7.63;;
9898;SDS011;4988;49.238;6.698;2023-05-29T00:11:29;16.90;;;7.57;;
9898;SDS011;4988;49.238;6.698;2023-05-29T00:13:54;14.07;;;7.30;;
9898;SDS011;4988;49.238;6.698;2023-05-29T00:16:21;15.13;;;7.77;;
9898;SDS011;4988;49.238;6.698;2023-05-29T00:18:48;14.00;;;7.70;;
9898;SDS011;4988;49.238;6.698;2023-05-29T00:21:14;15.57;;;7.73;;
9898;SDS011;4988;49.238;6.698;2023-05-29T00:23:39;16.93;;;8.03;;
9898;SDS011;4988;49.238;6.698;2023-05-29T00:26:05;13.17;;;7.10;;
9898;SDS011;4988;49.238;6.698;2023-05-29T00:28:30;16.67;;;7.70;;
9898;SDS011;4988;49.238;6.698;2023-05-29T00:30:56;13.00;;;6.63;;
9898;SDS011;4988;49.238;6.698;2023-05-29T00:33:21;14.50;;;7.17;;
9898;SDS011;4988;49.238;6.698;2023-05-29T00:35:46;20.57;;;7.47;;
9898;SDS011;4988;49.238;6.698;2023-05-29T00:38:12;17.90;;;7.83;;
9898;SDS011;4988;49.238;6.698;2023-05-29T00:40:39;12.00;;;6.27;;
9898;SDS011;4988;49.238;6.698;2023-05-29T00:43:05;16.30;;;7.50;;
9898;SDS011;4988;49.238;6.698;2023-05-29T00:45:30;14.80;;;6.90;;
9898;SDS011;4988;49.238;6.698;2023-05-29T00:47:57;18.47;;;7.43;;
9898;SDS011;4988;49.238;6.698;2023-05-29T00:50:22;15.50;;;6.87;;
9898;SDS011;4988;49.238;6.698;2023-05-29T00:52:48;14.13;;;7.43;;
9898;SDS011;4988;49.238;6.698;2023-05-29T00:55:15;15.20;;;7.70;;
9898;SDS011;4988;49.238;6.698;2023-05-29T00:57:41;13.33;;;7.00;;
9898;SDS011;4988;49.238;6.698;2023-05-29T01:00:07;14.07;;;7.37;;
9898;SDS011;4988;49.238;6.698;2023-05-29T01:02:36;14.80;;;7.53;;
9898;SDS011;4988;49.238;6.698;2023-05-29T01:05:02;13.20;;;7.03;;
9898;SDS011;4988;49.238;6.698;2023-05-29T01:07:28;15.60;;;6.80;;
9898;SDS011;4988;49.238;6.698;2023-05-29T01:09:53;13.47;;;6.87;;
9898;SDS011;4988;49.238;6.698;2023-05-29T01:12:23;14.13;;;6.93;;
9898;SDS011;4988;49.238;6.698;2023-05-29T01:15:30;14.37;;;6.97;;
9898;SDS011;4988;49.238;6.698;2023-05-29T01:20:43;14.57;;;6.50;;
9898;SDS011;4988;49.238;6.698;2023-05-29T01:28:27;16.80;;;7.30;;
9898;SDS011;4988;49.238;6.698;2023-05-29T01:30:58;13.57;;;6.73;;
9898;SDS011;4988;49.238;6.698;2023-05-29T01:33:26;14.77;;;7.43;;
9898;SDS011;4988;49.238;6.698;2023-05-29T01:35:52;12.00;;;6.37;;
9898;SDS011;4988;49.238;6.698;2023-05-29T01:38:18;13.30;;;6.73;;
9898;SDS011;4988;49.238;6.698;2023-05-29T01:40:43;13.23;;;6.57;;
9898;SDS011;4988;49.238;6.698;2023-05-29T01:43:09;11.60;;;6.60;;
9898;SDS011;4988;49.238;6.698;2023-05-29T01:45:35;14.20;;;6.83;;
9898;SDS011;4988;49.238;6.698;2023-05-29T01:48:01;11.13;;;6.00;;
9898;SDS011;4988;49.238;6.698;2023-05-29T01:50:27;12.00;;;6.50;;
9898;SDS011;4988;49.238;6.698;2023-05-29T01:52:52;11.10;;;6.23;;
9898;SDS011;4988;49.238;6.698;2023-05-29T01:55:18;10.53;;;5.77;;
9898;SDS011;4988;49.238;6.698;2023-05-29T01:57:43;10.80;;;5.73;;
9898;SDS011;4988;49.238;6.698;2023-05-29T02:00:10;13.13;;;5.93;;
9898;SDS011;4988;49.238;6.698;2023-05-29T02:02:39;16.67;;;6.00;;
9898;SDS011;4988;49.238;6.698;2023-05-29T02:05:05;13.50;;;6.13;;
9898;SDS011;4988;49.238;6.698;2023-05-29T02:07:32;12.67;;;6.60;;
9898;SDS011;4988;49.238;6.698;2023-05-29T02:09:58;15.30;;;5.87;;
9898;SDS011;4988;49.238;6.698;2023-05-29T02:12:23;11.60;;;6.00;;
9898;SDS011;4988;49.238;6.698;2023-05-29T02:14:49;11.17;;;5.80;;
9898;SDS011;4988;49.238;6.698;2023-05-29T02:17:14;13.17;;;6.03;;
9898;SDS011;4988;49.238;6.698;2023-05-29T02:19:40;10.37;;;6.07;;
9898;SDS011;4988;49.238;6.698;2023-05-29T02:22:05;13.97;;;6.10;;
9898;SDS011;4988;49.238;6.698;2023-05-29T02:24:31;11.43;;;5.90;;
9898;SDS011;4988;49.238;6.698;2023-05-29T02:26:56;10.23;;;5.93;;
9898;SDS011;4988;49.238;6.698;2023-05-29T02:29:22;10.97;;;5.73;;
9898;SDS011;4988;49.238;6.698;2023-05-29T02:31:47;15.80;;;6.20;;
9898;SDS011;4988;49.238;6.698;2023-05-29T02:34:12;12.97;;;6.00;;
9898;SDS011;4988;49.238;6.698;2023-05-29T02:36:38;11.40;;;6.13;;
9898;SDS011;4988;49.238;6.698;2023-05-29T02:39:03;11.87;;;5.97;;
9898;SDS011;4988;49.238;6.698;2023-05-29T02:41:30;11.77;;;5.57;;
9898;SDS011;4988;49.238;6.698;2023-05-29T02:43:55;12.07;;;5.50;;
9898;SDS011;4988;49.238;6.698;2023-05-29T02:46:20;13.10;;;6.27;;
9898;SDS011;4988;49.238;6.698;2023-05-29T02:48:46;11.07;;;5.67;;
9898;SDS011;4988;49.238;6.698;2023-05-29T02:51:12;14.67;;;5.70;;
9898;SDS011;4988;49.238;6.698;2023-05-29T02:53:37;10.60;;;5.80;;
9898;SDS011;4988;49.238;6.698;2023-05-29T02:56:03;11.67;;;5.67;;
9898;SDS011;4988;49.238;6.698;2023-05-29T02:58:29;11.97;;;6.00;;
9898;SDS011;4988;49.238;6.698;2023-05-29T03:00:54;12.63;;;5.90;;
9898;SDS011;4988;49.238;6.698;2023-05-29T03:03:19;12.20;;;5.73;;
9898;SDS011;4988;49.238;6.698;2023-05-29T03:05:45;11.77;;;5.60;;
9898;SDS011;4988;49.238;6.698;2023-05-29T03:08:11;12.47;;;5.80;;
9898;SDS011;4988;49.238;6.698;2023-05-29T03:10:37;14.57;;;5.60;;
9898;SDS011;4988;49.238;6.698;2023-05-29T03:13:03;12.47;;;5.87;;
9898;SDS011;4988;49.238;6.698;2023-05-29T03:15:28;11.57;;;5.70;;
9898;SDS011;4988;49.238;6.698;2023-05-29T03:17:54;13.87;;;5.70;;
9898;SDS011;4988;49.238;6.698;2023-05-29T03:20:19;12.20;;;5.60;;
9898;SDS011;4988;49.238;6.698;2023-05-29T03:22:45;11.13;;;5.57;;
9898;SDS011;4988;49.238;6.698;2023-05-29T03:25:10;12.33;;;5.83;;
9898;SDS011;4988;49.238;6.698;2023-05-29T03:27:36;10.67;;;5.77;;
9898;SDS011;4988;49.238;6.698;2023-05-29T03:30:01;11.73;;;5.53;;
9898;SDS011;4988;49.238;6.698;2023-05-29T03:32:28;12.20;;;5.97;;
9898;SDS011;4988;49.238;6.698;2023-05-29T03:34:53;10.10;;;5.67;;
9898;SDS011;4988;49.238;6.698;2023-05-29T03:37:18;10.87;;;5.43;;
9898;SDS011;4988;49.238;6.698;2023-05-29T03:39:44;10.10;;;5.07;;
9898;SDS011;4988;49.238;6.698;2023-05-29T03:42:09;13.67;;;5.90;;
9898;SDS011;4988;49.238;6.698;2023-05-29T03:44:34;11.33;;;5.60;;
9898;SDS011;4988;49.238;6.698;2023-05-29T03:47:00;11.77;;;5.40;;
9898;SDS011;4988;49.238;6.698;2023-05-29T03:49:25;13.17;;;5.80;;
9898;SDS011;4988;49.238;6.698;2023-05-29T03:51:50;10.37;;;5.13;;
9898;SDS011;4988;49.238;6.698;2023-05-29T03:54:16;10.87;;;5.70;;
9898;SDS011;4988;49.238;6.698;2023-05-29T03:56:41;12.23;;;5.23;;
9898;SDS011;4988;49.238;6.698;2023-05-29T03:59:06;13.03;;;5.33;;
9898;SDS011;4988;49.238;6.698;2023-05-29T04:01:32;13.90;;;5.70;;
9898;SDS011;4988;49.238;6.698;2023-05-29T04:03:57;13.33;;;5.60;;
9898;SDS011;4988;49.238;6.698;2023-05-29T04:06:22;14.67;;;5.50;;
9898;SDS011;4988;49.238;6.698;2023-05-29T04:08:48;13.33;;;6.00;;
9898;SDS011;4988;49.238;6.698;2023-05-29T04:11:14;15.77;;;5.53;;
9898;SDS011;4988;49.238;6.698;2023-05-29T04:13:39;14.67;;;5.37;;
9898;SDS011;4988;49.238;6.698;2023-05-29T04:16:05;10.63;;;5.57;;
9898;SDS011;4988;49.238;6.698;2023-05-29T04:18:31;11.53;;;5.67;;
9898;SDS011;4988;49.238;6.698;2023-05-29T04:20:57;11.20;;;5.53;;
9898;SDS011;4988;49.238;6.698;2023-05-29T04:23:22;12.43;;;5.30;;
9898;SDS011;4988;49.238;6.698;2023-05-29T04:25:48;15.17;;;5.43;;
9898;SDS011;4988;49.238;6.698;2023-05-29T04:28:16;13.47;;;6.00;;
9898;SDS011;4988;49.238;6.698;2023-05-29T04:30:42;13.17;;;5.17;;
9898;SDS011;4988;49.238;6.698;2023-05-29T04:33:07;13.43;;;5.70;;
9898;SDS011;4988;49.238;6.698;2023-05-29T04:35:34;14.70;;;5.63;;
9898;SDS011;4988;49.238;6.698;2023-05-29T04:38:00;15.57;;;5.43;;
9898;SDS011;4988;49.238;6.698;2023-05-29T04:40:25;14.53;;;5.87;;
9898;SDS011;4988;49.238;6.698;2023-05-29T04:42:51;14.30;;;5.70;;
9898;SDS011;4988;49.238;6.698;2023-05-29T04:45:19;11.23;;;5.20;;
9898;SDS011;4988;49.238;6.698;2023-05-29T04:47:47;17.53;;;6.10;;
9898;SDS011;4988;49.238;6.698;2023-05-29T04:50:13;14.43;;;5.70;;
9898;SDS011;4988;49.238;6.698;2023-05-29T04:52:39;11.67;;;6.20;;
9898;SDS011;4988;49.238;6.698;2023-05-29T04:55:04;15.20;;;5.23;;
9898;SDS011;4988;49.238;6.698;2023-05-29T04:57:30;11.70;;;5.07;;
9898;SDS011;4988;49.238;6.698;2023-05-29T04:59:56;15.17;;;5.53;;
9898;SDS011;4988;49.238;6.698;2023-05-29T05:02:21;14.33;;;5.47;;
9898;SDS011;4988;49.238;6.698;2023-05-29T05:04:46;11.57;;;5.40;;
9898;SDS011;4988;49.238;6.698;2023-05-29T05:07:12;12.90;;;5.03;;
9898;SDS011;4988;49.238;6.698;2023-05-29T05:09:38;11.03;;;5.00;;
9898;SDS011;4988;49.238;6.698;2023-05-29T05:12:03;12.07;;;4.90;;
9898;SDS011;4988;49.238;6.698;2023-05-29T05:14:29;10.10;;;5.37;;
9898;SDS011;4988;49.238;6.698;2023-05-29T05:16:54;12.13;;;5.40;;
9898;SDS011;4988;49.238;6.698;2023-05-29T05:19:19;10.57;;;5.10;;
9898;SDS011;4988;49.238;6.698;2023-05-29T05:21:45;10.33;;;5.00;;
9898;SDS011;4988;49.238;6.698;2023-05-29T05:24:10;10.30;;;5.20;;
9898;SDS011;4988;49.238;6.698;2023-05-29T05:26:36;10.83;;;5.00;;
9898;SDS011;4988;49.238;6.698;2023-05-29T05:29:01;9.57;;;4.50;;
9898;SDS011;4988;49.238;6.698;2023-05-29T05:31:26;8.17;;;4.37;;
9898;SDS011;4988;49.238;6.698;2023-05-29T05:33:52;9.87;;;4.87;;
9898;SDS011;4988;49.238;6.698;2023-05-29T05:36:17;8.77;;;4.77;;
9898;SDS011;4988;49.238;6.698;2023-05-29T05:38:43;9.67;;;4.83;;
9898;SDS011;4988;49.238;6.698;2023-05-29T05:41:08;12.60;;;5.20;;
9898;SDS011;4988;49.238;6.698;2023-05-29T05:43:34;10.97;;;5.00;;
9898;SDS011;4988;49.238;6.698;2023-05-29T05:45:59;10.23;;;4.47;;
9898;SDS011;4988;49.238;6.698;2023-05-29T05:48:25;7.80;;;4.23;;
9898;SDS011;4988;49.238;6.698;2023-05-29T05:50:50;8.83;;;4.37;;
9898;SDS011;4988;49.238;6.698;2023-05-29T05:53:15;8.60;;;4.30;;
9898;SDS011;4988;49.238;6.698;2023-05-29T05:55:41;8.37;;;4.07;;
9898;SDS011;4988;49.238;6.698;2023-05-29T05:58:07;12.30;;;4.43;;
9898;SDS011;4988;49.238;6.698;2023-05-29T06:00:32;12.30;;;4.40;;
9898;SDS011;4988;49.238;6.698;2023-05-29T06:02:57;9.63;;;4.27;;
9898;SDS011;4988;49.238;6.698;2023-05-29T06:05:24;15.80;;;4.67;;
9898;SDS011;4988;49.238;6.698;2023-05-29T06:07:49;9.57;;;4.30;;
9898;SDS011;4988;49.238;6.698;2023-05-29T06:10:15;8.87;;;4.50;;
9898;SDS011;4988;49.238;6.698;2023-05-29T06:12:40;12.53;;;4.40;;
9898;SDS011;4988;49.238;6.698;2023-05-29T06:15:06;12.70;;;4.60;;
9898;SDS011;4988;49.238;6.698;2023-05-29T06:17:32;11.07;;;4.30;;
9898;SDS011;4988;49.238;6.698;2023-05-29T06:19:57;12.13;;;4.50;;
9898;SDS011;4988;49.238;6.698;2023-05-29T06:22:22;9.53;;;4.10;;
9898;SDS011;4988;49.238;6.698;2023-05-29T06:24:47;9.93;;;4.43;;
9898;SDS011;4988;49.238;6.698;2023-05-29T06:27:13;9.53;;;4.53;;
9898;SDS011;4988;49.238;6.698;2023-05-29T06:29:38;10.50;;;4.13;;
9898;SDS011;4988;49.238;6.698;2023-05-29T06:32:03;9.13;;;3.70;;
9898;SDS011;4988;49.238;6.698;2023-05-29T06:34:29;9.30;;;3.90;;
9898;SDS011;4988;49.238;6.698;2023-05-29T06:36:55;8.93;;;4.13;;
9898;SDS011;4988;49.238;6.698;2023-05-29T06:39:20;11.33;;;4.00;;
9898;SDS011;4988;49.238;6.698;2023-05-29T06:41:46;10.07;;;4.07;;
9898;SDS011;4988;49.238;6.698;2023-05-29T06:44:11;8.57;;;3.80;;
9898;SDS011;4988;49.238;6.698;2023-05-29T06:46:36;8.63;;;3.70;;
9898;SDS011;4988;49.238;6.698;2023-05-29T06:49:02;8.27;;;3.57;;
9898;SDS011;4988;49.238;6.698;2023-05-29T06:51:27;7.03;;;3.40;;
9898;SDS011;4988;49.238;6.698;2023-05-29T06:53:52;7.80;;;3.67;;
9898;SDS011;4988;49.238;6.698;2023-05-29T06:56:18;11.47;;;4.00;;
9898;SDS011;4988;49.238;6.698;2023-05-29T06:58:43;9.47;;;4.10;;
9898;SDS011;4988;49.238;6.698;2023-05-29T07:01:10;7.90;;;3.50;;
9898;SDS011;4988;49.238;6.698;2023-05-29T07:03:36;7.80;;;4.10;;
9898;SDS011;4988;49.238;6.698;2023-05-29T07:06:01;6.37;;;3.80;;
9898;SDS011;4988;49.238;6.698;2023-05-29T07:08:27;7.73;;;3.47;;
9898;SDS011;4988;49.238;6.698;2023-05-29T07:10:52;6.83;;;3.57;;
9898;SDS011;4988;49.238;6.698;2023-05-29T07:13:18;6.70;;;3.20;;
9898;SDS011;4988;49.238;6.698;2023-05-29T07:15:48;8.40;;;3.60;;
9898;SDS011;4988;49.238;6.698;2023-05-29T07:18:13;7.10;;;3.40;;
9898;SDS011;4988;49.238;6.698;2023-05-29T07:20:39;8.53;;;3.43;;
9898;SDS011;4988;49.238;6.698;2023-05-29T07:23:04;7.23;;;3.43;;
9898;SDS011;4988;49.238;6.698;2023-05-29T07:25:30;7.53;;;3.57;;
9898;SDS011;4988;49.238;6.698;2023-05-29T07:27:55;7.10;;;3.50;;
9898;SDS011;4988;49.238;6.698;2023-05-29T07:30:21;7.87;;;3.30;;
9898;SDS011;4988;49.238;6.698;2023-05-29T07:32:46;7.43;;;3.57;;
9898;SDS011;4988;49.238;6.698;2023-05-29T07:35:12;8.60;;;3.23;;
9898;SDS011;4988;49.238;6.698;2023-05-29T07:37:37;8.57;;;3.10;;
9898;SDS011;4988;49.238;6.698;2023-05-29T07:40:03;9.37;;;3.23;;
9898;SDS011;4988;49.238;6.698;2023-05-29T07:42:31;6.53;;;2.93;;
9898;SDS011;4988;49.238;6.698;2023-05-29T07:44:57;11.20;;;3.67;;
9898;SDS011;4988;49.238;6.698;2023-05-29T07:47:23;7.40;;;3.40;;
9898;SDS011;4988;49.238;6.698;2023-05-29T07:49:48;7.10;;;3.50;;
9898;SDS011;4988;49.238;6.698;2023-05-29T07:52:14;6.37;;;3.40;;
9898;SDS011;4988;49.238;6.698;2023-05-29T07:54:40;7.60;;;3.00;;
9898;SDS011;4988;49.238;6.698;2023-05-29T07:57:05;9.67;;;3.47;;
9898;SDS011;4988;49.238;6.698;2023-05-29T07:59:34;9.80;;;3.10;;
9898;SDS011;4988;49.238;6.698;2023-05-29T08:02:00;8.20;;;3.33;;
9898;SDS011;4988;49.238;6.698;2023-05-29T08:04:28;6.80;;;3.20;;
9898;SDS011;4988;49.238;6.698;2023-05-29T08:06:53;7.13;;;3.50;;
9898;SDS011;4988;49.238;6.698;2023-05-29T08:09:18;6.80;;;3.37;;
9898;SDS011;4988;49.238;6.698;2023-05-29T08:11:44;8.70;;;3.40;;
9898;SDS011;4988;49.238;6.698;2023-05-29T08:14:11;5.97;;;3.10;;
9898;SDS011;4988;49.238;6.698;2023-05-29T08:16:37;6.83;;;3.30;;
9898;SDS011;4988;49.238;6.698;2023-05-29T08:19:02;8.40;;;3.30;;
9898;SDS011;4988;49.238;6.698;2023-05-29T08:21:29;7.30;;;3.30;;
9898;SDS011;4988;49.238;6.698;2023-05-29T08:23:55;7.50;;;3.00;;
9898;SDS011;4988;49.238;6.698;2023-05-29T08:26:20;5.63;;;3.10;;
9898;SDS011;4988;49.238;6.698;2023-05-29T08:28:46;7.13;;;3.07;;
9898;SDS011;4988;49.238;6.698;2023-05-29T08:31:11;7.27;;;3.10;;
9898;SDS011;4988;49.238;6.698;2023-05-29T08:33:37;6.83;;;3.17;;
9898;SDS011;4988;49.238;6.698;2023-05-29T08:36:02;8.47;;;3.20;;
9898;SDS011;4988;49.238;6.698;2023-05-29T08:38:28;6.00;;;3.10;;
9898;SDS011;4988;49.238;6.698;2023-05-29T08:40:54;9.60;;;3.30;;
9898;SDS011;4988;49.238;6.698;2023-05-29T08:43:22;8.63;;;3.47;;
9898;SDS011;4988;49.238;6.698;2023-05-29T08:45:52;8.00;;;3.50;;
9898;SDS011;4988;49.238;6.698;2023-05-29T08:48:19;8.77;;;3.60;;
9898;SDS011;4988;49.238;6.698;2023-05-29T08:50:48;10.53;;;3.27;;
9898;SDS011;4988;49.238;6.698;2023-05-29T08:53:15;7.40;;;3.10;;
9898;SDS011;4988;49.238;6.698;2023-05-29T08:55:41;7.20;;;3.30;;
9898;SDS011;4988;49.238;6.698;2023-05-29T08:58:07;6.83;;;3.50;;
9898;SDS011;4988;49.238;6.698;2023-05-29T09:00:33;7.90;;;3.83;;
9898;SDS011;4988;49.238;6.698;2023-05-29T09:02:58;8.90;;;3.53;;
9898;SDS011;4988;49.238;6.698;2023-05-29T09:05:28;5.87;;;3.33;;
9898;SDS011;4988;49.238;6.698;2023-05-29T09:07:54;5.70;;;3.13;;
9898;SDS011;4988;49.238;6.698;2023-05-29T09:10:21;7.90;;;3.57;;
9898;SDS011;4988;49.238;6.698;2023-05-29T09:12:47;6.23;;;3.30;;
9898;SDS011;4988;49.238;6.698;2023-05-29T09:15:19;6.97;;;3.23;;
9898;SDS011;4988;49.238;6.698;2023-05-29T09:17:52;10.10;;;4.10;;
9898;SDS011;4988;49.238;6.698;2023-05-29T09:20:22;8.57;;;3.40;;
9898;SDS011;4988;49.238;6.698;2023-05-29T09:22:55;6.53;;;3.60;;
9898;SDS011;4988;49.238;6.698;2023-05-29T09:25:22;7.33;;;3.37;;
9898;SDS011;4988;49.238;6.698;2023-05-29T09:27:54;6.10;;;3.17;;
9898;SDS011;4988;49.238;6.698;2023-05-29T09:32:58;6.17;;;3.53;;
9898;SDS011;4988;49.238;6.698;2023-05-29T09:35:25;6.37;;;3.80;;
9898;SDS011;4988;49.238;6.698;2023-05-29T09:37:53;6.50;;;3.20;;
9898;SDS011;4988;49.238;6.698;2023-05-29T09:40:18;8.70;;;3.13;;
9898;SDS011;4988;49.238;6.698;2023-05-29T09:42:44;6.87;;;3.40;;
9898;SDS011;4988;49.238;6.698;2023-05-29T09:45:09;6.10;;;3.47;;
9898;SDS011;4988;49.238;6.698;2023-05-29T09:47:35;7.63;;;3.30;;
9898;SDS011;4988;49.238;6.698;2023-05-29T09:50:00;6.93;;;3.50;;
9898;SDS011;4988;49.238;6.698;2023-05-29T09:52:26;6.93;;;3.23;;
9898;SDS011;4988;49.238;6.698;2023-05-29T09:54:55;7.87;;;3.30;;
9898;SDS011;4988;49.238;6.698;2023-05-29T09:57:21;8.87;;;3.53;;
9898;SDS011;4988;49.238;6.698;2023-05-29T09:59:48;6.03;;;3.33;;
9898;SDS011;4988;49.238;6.698;2023-05-29T10:02:16;6.40;;;3.93;;
9898;SDS011;4988;49.238;6.698;2023-05-29T10:04:42;9.23;;;3.93;;
9898;SDS011;4988;49.238;6.698;2023-05-29T10:09:50;8.03;;;3.67;;
9898;SDS011;4988;49.238;6.698;2023-05-29T10:12:20;6.20;;;3.73;;
9898;SDS011;4988;49.238;6.698;2023-05-29T10:14:47;6.47;;;3.30;;
9898;SDS011;4988;49.238;6.698;2023-05-29T10:17:14;8.47;;;3.40;;
9898;SDS011;4988;49.238;6.698;2023-05-29T10:19:43;5.90;;;3.40;;
9898;SDS011;4988;49.238;6.698;2023-05-29T10:22:10;7.17;;;3.47;;
9898;SDS011;4988;49.238;6.698;2023-05-29T10:24:36;6.80;;;3.33;;
9898;SDS011;4988;49.238;6.698;2023-05-29T10:27:02;7.57;;;3.60;;
9898;SDS011;4988;49.238;6.698;2023-05-29T10:32:42;9.03;;;3.70;;
9898;SDS011;4988;49.238;6.698;2023-05-29T10:35:30;8.80;;;3.70;;
9898;SDS011;4988;49.238;6.698;2023-05-29T10:38:11;6.67;;;3.73;;
9898;SDS011;4988;49.238;6.698;2023-05-29T10:40:43;6.87;;;3.47;;
9898;SDS011;4988;49.238;6.698;2023-05-29T10:43:09;7.27;;;3.47;;
9898;SDS011;4988;49.238;6.698;2023-05-29T10:45:54;7.37;;;3.67;;
9898;SDS011;4988;49.238;6.698;2023-05-29T10:49:02;7.93;;;3.40;;
9898;SDS011;4988;49.238;6.698;2023-05-29T10:51:08;7.13;;;3.37;;
9898;SDS011;4988;49.238;6.698;2023-05-29T10:53:48;5.87;;;3.80;;
9898;SDS011;4988;49.238;6.698;2023-05-29T10:56:15;5.90;;;3.60;;
9898;SDS011;4988;49.238;6.698;2023-05-29T10:58:49;5.23;;;3.17;;
9898;SDS011;4988;49.238;6.698;2023-05-29T11:01:20;7.80;;;3.93;;
9898;SDS011;4988;49.238;6.698;2023-05-29T11:03:46;6.00;;;3.50;;
9898;SDS011;4988;49.238;6.698;2023-05-29T11:06:19;7.77;;;4.13;;
9898;SDS011;4988;49.238;6.698;2023-05-29T11:08:46;8.03;;;3.80;;
9898;SDS011;4988;49.238;6.698;2023-05-29T11:11:35;8.77;;;3.90;;
9898;SDS011;4988;49.238;6.698;2023-05-29T11:14:03;8.33;;;3.77;;
9898;SDS011;4988;49.238;6.698;2023-05-29T11:18:56;7.77;;;3.80;;
9898;SDS011;4988;49.238;6.698;2023-05-29T11:23:54;8.87;;;3.50;;
9898;SDS011;4988;49.238;6.698;2023-05-29T11:26:23;7.53;;;3.80;;
9898;SDS011;4988;49.238;6.698;2023-05-29T11:28:51;5.90;;;3.50;;
9898;SDS011;4988;49.238;6.698;2023-05-29T11:31:16;7.53;;;3.70;;
9898;SDS011;4988;49.238;6.698;2023-05-29T11:33:46;7.10;;;4.07;;
9898;SDS011;4988;49.238;6.698;2023-05-29T11:36:20;8.47;;;3.70;;
9898;SDS011;4988;49.238;6.698;2023-05-29T11:38:46;6.57;;;3.80;;
9898;SDS011;4988;49.238;6.698;2023-05-29T11:41:11;10.07;;;4.30;;
9898;SDS011;4988;49.238;6.698;2023-05-29T11:43:37;9.47;;;4.30;;
9898;SDS011;4988;49.238;6.698;2023-05-29T11:46:02;7.27;;;3.80;;
9898;SDS011;4988;49.238;6.698;2023-05-29T11:48:46;12.03;;;4.40;;
9898;SDS011;4988;49.238;6.698;2023-05-29T11:51:12;8.10;;;3.87;;
9898;SDS011;4988;49.238;6.698;2023-05-29T11:53:39;10.83;;;4.07;;
9898;SDS011;4988;49.238;6.698;2023-05-29T11:56:07;7.70;;;3.87;;
9898;SDS011;4988;49.238;6.698;2023-05-29T11:58:33;8.60;;;3.43;;
9898;SDS011;4988;49.238;6.698;2023-05-29T12:00:59;6.87;;;4.07;;
9898;SDS011;4988;49.238;6.698;2023-05-29T12:03:24;8.67;;;4.03;;
9898;SDS011;4988;49.238;6.698;2023-05-29T12:05:50;6.67;;;3.63;;
9898;SDS011;4988;49.238;6.698;2023-05-29T12:08:20;7.57;;;3.83;;
9898;SDS011;4988;49.238;6.698;2023-05-29T12:10:48;7.30;;;3.90;;
9898;SDS011;4988;49.238;6.698;2023-05-29T12:13:14;10.20;;;4.47;;
9898;SDS011;4988;49.238;6.698;2023-05-29T12:15:42;6.50;;;3.80;;
9898;SDS011;4988;49.238;6.698;2023-05-29T12:18:08;10.50;;;4.43;;
9898;SDS011;4988;49.238;6.698;2023-05-29T12:20:34;9.33;;;3.83;;
9898;SDS011;4988;49.238;6.698;2023-05-29T12:23:00;6.83;;;3.93;;
9898;SDS011;4988;49.238;6.698;2023-05-29T12:25:26;8.03;;;3.83;;
9898;SDS011;4988;49.238;6.698;2023-05-29T12:27:52;8.23;;;4.20;;
9898;SDS011;4988;49.238;6.698;2023-05-29T12:30:21;8.23;;;4.13;;
9898;SDS011;4988;49.238;6.698;2023-05-29T12:32:51;8.23;;;4.00;;
9898;SDS011;4988;49.238;6.698;2023-05-29T12:35:21;9.53;;;4.00;;
9898;SDS011;4988;49.238;6.698;2023-05-29T12:45:32;6.60;;;3.70;;
9898;SDS011;4988;49.238;6.698;2023-05-29T12:50:29;8.47;;;4.07;;
9898;SDS011;4988;49.238;6.698;2023-05-29T12:53:01;9.60;;;4.03;;
9898;SDS011;4988;49.238;6.698;2023-05-29T12:55:28;9.20;;;4.23;;
9898;SDS011;4988;49.238;6.698;2023-05-29T12:57:55;7.13;;;4.20;;
9898;SDS011;4988;49.238;6.698;2023-05-29T13:00:21;8.30;;;3.80;;
9898;SDS011;4988;49.238;6.698;2023-05-29T13:02:48;7.17;;;4.10;;
9898;SDS011;4988;49.238;6.698;2023-05-29T13:05:14;8.60;;;4.30;;
9898;SDS011;4988;49.238;6.698;2023-05-29T13:07:41;7.37;;;3.70;;
9898;SDS011;4988;49.238;6.698;2023-05-29T13:10:07;8.53;;;4.43;;
9898;SDS011;4988;49.238;6.698;2023-05-29T13:12:33;8.57;;;4.27;;
9898;SDS011;4988;49.238;6.698;2023-05-29T13:14:59;8.23;;;4.20;;
9898;SDS011;4988;49.238;6.698;2023-05-29T13:17:25;7.83;;;3.67;;
9898;SDS011;4988;49.238;6.698;2023-05-29T13:19:50;8.43;;;4.17;;
9898;SDS011;4988;49.238;6.698;2023-05-29T13:22:15;10.53;;;4.60;;
9898;SDS011;4988;49.238;6.698;2023-05-29T13:24:41;12.53;;;4.47;;
9898;SDS011;4988;49.238;6.698;2023-05-29T13:27:06;9.67;;;4.10;;
9898;SDS011;4988;49.238;6.698;2023-05-29T13:29:32;6.67;;;4.13;;
9898;SDS011;4988;49.238;6.698;2023-05-29T13:31:57;9.80;;;3.97;;
9898;SDS011;4988;49.238;6.698;2023-05-29T13:34:23;7.80;;;3.90;;
9898;SDS011;4988;49.238;6.698;2023-05-29T13:36:53;7.30;;;3.87;;
9898;SDS011;4988;49.238;6.698;2023-05-29T13:39:19;6.70;;;3.97;;
9898;SDS011;4988;49.238;6.698;2023-05-29T13:41:44;8.57;;;3.53;;
9898;SDS011;4988;49.238;6.698;2023-05-29T13:44:09;8.80;;;3.83;;
9898;SDS011;4988;49.238;6.698;2023-05-29T13:46:35;8.63;;;3.73;;
9898;SDS011;4988;49.238;6.698;2023-05-29T13:49:02;11.67;;;4.00;;
9898;SDS011;4988;49.238;6.698;2023-05-29T13:51:27;9.07;;;4.27;;
9898;SDS011;4988;49.238;6.698;2023-05-29T13:53:53;7.60;;;3.83;;
9898;SDS011;4988;49.238;6.698;2023-05-29T13:56:18;7.80;;;3.97;;
9898;SDS011;4988;49.238;6.698;2023-05-29T13:58:43;9.93;;;3.77;;
9898;SDS011;4988;49.238;6.698;2023-05-29T14:01:09;8.10;;;3.80;;
9898;SDS011;4988;49.238;6.698;2023-05-29T14:03:35;7.73;;;3.97;;
9898;SDS011;4988;49.238;6.698;2023-05-29T14:06:00;8.50;;;3.80;;
9898;SDS011;4988;49.238;6.698;2023-05-29T14:08:27;6.83;;;3.83;;
9898;SDS011;4988;49.238;6.698;2023-05-29T14:10:53;7.53;;;3.77;;
9898;SDS011;4988;49.238;6.698;2023-05-29T14:13:18;7.30;;;3.97;;
9898;SDS011;4988;49.238;6.698;2023-05-29T14:15:43;9.50;;;3.70;;
9898;SDS011;4988;49.238;6.698;2023-05-29T14:18:09;8.00;;;4.03;;
9898;SDS011;4988;49.238;6.698;2023-05-29T14:20:34;7.53;;;3.90;;
9898;SDS011;4988;49.238;6.698;2023-05-29T14:23:00;8.93;;;4.40;;
9898;SDS011;4988;49.238;6.698;2023-05-29T14:25:25;6.03;;;3.73;;
9898;SDS011;4988;49.238;6.698;2023-05-29T14:27:50;8.40;;;4.00;;
9898;SDS011;4988;49.238;6.698;2023-05-29T14:30:16;7.83;;;4.20;;
9898;SDS011;4988;49.238;6.698;2023-05-29T14:32:42;8.67;;;4.13;;
9898;SDS011;4988;49.238;6.698;2023-05-29T14:35:08;7.80;;;4.00;;
9898;SDS011;4988;49.238;6.698;2023-05-29T14:37:34;9.67;;;4.07;;
9898;SDS011;4988;49.238;6.698;2023-05-29T14:40:00;10.53;;;3.77;;
9898;SDS011;4988;49.238;6.698;2023-05-29T14:42:25;8.30;;;4.00;;
9898;SDS011;4988;49.238;6.698;2023-05-29T14:44:51;9.60;;;3.70;;
9898;SDS011;4988;49.238;6.698;2023-05-29T14:47:16;6.60;;;4.00;;
9898;SDS011;4988;49.238;6.698;2023-05-29T14:49:43;10.63;;;4.07;;
9898;SDS011;4988;49.238;6.698;2023-05-29T14:52:09;9.13;;;4.20;;
9898;SDS011;4988;49.238;6.698;2023-05-29T14:54:34;9.33;;;4.00;;
9898;SDS011;4988;49.238;6.698;2023-05-29T14:56:59;9.27;;;4.30;;
9898;SDS011;4988;49.238;6.698;2023-05-29T14:59:25;6.33;;;4.17;;
9898;SDS011;4988;49.238;6.698;2023-05-29T15:01:50;7.27;;;3.77;;
9898;SDS011;4988;49.238;6.698;2023-05-29T15:04:16;9.57;;;4.13;;
9898;SDS011;4988;49.238;6.698;2023-05-29T15:06:41;7.00;;;3.80;;
9898;SDS011;4988;49.238;6.698;2023-05-29T15:09:06;7.77;;;3.60;;
9898;SDS011;4988;49.238;6.698;2023-05-29T15:11:32;8.13;;;3.93;;
9898;SDS011;4988;49.238;6.698;2023-05-29T15:13:57;8.37;;;3.90;;
9898;SDS011;4988;49.238;6.698;2023-05-29T15:16:23;7.50;;;3.93;;
9898;SDS011;4988;49.238;6.698;2023-05-29T15:18:48;8.93;;;3.80;;
9898;SDS011;4988;49.238;6.698;2023-05-29T15:21:14;7.63;;;4.10;;
9898;SDS011;4988;49.238;6.698;2023-05-29T15:23:39;6.67;;;3.50;;
9898;SDS011;4988;49.238;6.698;2023-05-29T15:26:05;9.37;;;3.87;;
9898;SDS011;4988;49.238;6.698;2023-05-29T15:28:31;7.53;;;3.80;;
9898;SDS011;4988;49.238;6.698;2023-05-29T15:30:57;6.70;;;3.60;;
9898;SDS011;4988;49.238;6.698;2023-05-29T15:33:23;6.60;;;4.00;;
9898;SDS011;4988;49.238;6.698;2023-05-29T15:35:48;9.13;;;4.27;;
9898;SDS011;4988;49.238;6.698;2023-05-29T15:38:14;13.10;;;3.60;;